Time,TemperatureF,DewpointF,PressureIn,WindDirection,WindDirectionDegrees,WindSpeedMPH,WindSpeedGustMPH,Humidity,HourlyPrecipIn,Conditions,Clouds,dailyrainin,SoftwareType,DateUTC
2013-11-19 00:21:00,55.0,36.0,29.99,SSW,207,7.0,13.0,49,0.00,,,0.00,,2013-11-19 08:21:00,
2013-11-19 00:42:00,54.0,36.0,30.00,West,263,7.0,14.0,50,0.00,,,0.00,,2013-11-19 08:42:00,
2013-11-19 00:52:00,54.0,36.0,29.99,SW,215,9.0,14.0,51,0.00,,,0.00,,2013-11-19 08:52:00,
2013-11-19 01:21:00,54.0,36.0,29.97,SSW,206,7.0,12.0,50,0.00,,,0.00,,2013-11-19 09:21:00,
2013-11-19 01:43:00,54.0,35.0,29.97,SSW,200,7.0,14.0,49,0.00,,,0.00,,2013-11-19 09:43:00,
2013-11-19 01:53:00,54.0,36.0,29.96,SW,221,11.0,20.0,50,0.00,,,0.00,,2013-11-19 09:53:00,
2013-11-19 02:12:00,53.0,36.0,29.96,SSW,206,12.0,18.0,52,0.00,,,0.00,,2013-11-19 10:12:00,
2013-11-19 02:23:00,54.0,36.0,29.95,SSW,194,15.0,18.0,50,0.00,,,0.00,,2013-11-19 10:23:00,
2013-11-19 02:53:00,54.0,35.0,29.96,South,187,13.0,19.0,49,0.00,,,0.00,,2013-11-19 10:53:00,
2013-11-19 03:12:00,54.0,35.0,29.95,South,188,17.0,21.0,49,0.00,,,0.00,,2013-11-19 11:12:00,
2013-11-19 03:22:00,54.0,35.0,29.95,SSW,202,9.0,17.0,49,0.00,,,0.00,,2013-11-19 11:22:00,
2013-11-19 03:41:00,54.0,35.0,29.95,SSW,196,11.0,16.0,49,0.00,,,0.00,,2013-11-19 11:41:00,
2013-11-19 03:52:00,55.0,35.0,29.94,SSW,192,13.0,19.0,47,0.00,,,0.00,,2013-11-19 11:52:00,
2013-11-19 04:21:00,54.0,35.0,29.95,SW,224,11.0,19.0,49,0.00,,,0.00,,2013-11-19 12:21:00,
2013-11-19 04:42:00,53.0,35.0,29.94,SSW,197,9.0,14.0,51,0.00,,,0.00,,2013-11-19 12:42:00,
2013-11-19 04:52:00,52.0,35.0,29.94,SW,215,6.0,12.0,52,0.00,,,0.00,,2013-11-19 12:52:00,
2013-11-19 05:41:00,51.0,35.0,29.94,North,5,2.0,6.0,54,0.00,,,0.00,,2013-11-19 13:41:00,
2013-11-19 05:52:00,48.0,34.0,29.94,NE,49,0.0,0.0,59,0.00,,,0.00,,2013-11-19 13:52:00,
2013-11-19 06:21:00,47.0,35.0,29.95,SW,230,3.0,5.0,62,0.00,,,0.00,,2013-11-19 14:21:00,
2013-11-19 06:52:00,45.0,34.0,29.96,WSW,237,0.0,2.0,66,0.00,,,0.00,,2013-11-19 14:52:00,
2013-11-19 07:21:00,45.0,35.0,29.97,North,5,0.0,4.0,67,0.00,,,0.00,,2013-11-19 15:21:00,
2013-11-19 07:54:00,48.0,36.0,29.97,NNW,347,0.0,0.0,62,0.00,,,0.00,,2013-11-19 15:54:00,
2013-11-19 08:22:00,53.0,37.0,29.97,West,261,1.0,4.0,54,0.00,,,0.00,,2013-11-19 16:22:00,
2013-11-19 08:43:00,53.0,36.0,29.97,West,262,1.0,3.0,53,0.00,,,0.00,,2013-11-19 16:43:00,
2013-11-19 08:52:00,52.0,36.0,29.98,NNE,30,1.0,5.0,55,0.00,,,0.00,,2013-11-19 16:52:00,
2013-11-19 09:22:00,52.0,36.0,29.99,NE,40,0.0,4.0,55,0.00,,,0.00,,2013-11-19 17:22:00,
2013-11-19 09:43:00,52.0,36.0,29.98,NE,41,0.0,0.0,55,0.00,,,0.00,,2013-11-19 17:43:00,
2013-11-19 09:52:00,53.0,36.0,29.99,East,87,0.0,2.0,53,0.00,,,0.00,,2013-11-19 17:52:00,
2013-11-19 10:22:00,56.0,37.0,29.98,SE,132,0.0,2.0,48,0.00,,,0.00,,2013-11-19 18:22:00,
2013-11-19 10:42:00,55.0,37.0,29.98,South,180,0.0,1.0,50,0.00,,,0.00,,2013-11-19 18:42:00,
2013-11-19 10:52:00,58.0,37.0,29.98,WNW,284,0.0,2.0,46,0.00,,,0.00,,2013-11-19 18:52:00,
2013-11-19 11:21:00,59.0,37.0,29.98,NW,322,0.0,2.0,44,0.00,,,0.00,,2013-11-19 19:21:00,
2013-11-19 11:41:00,59.0,37.0,29.97,NW,322,0.0,2.0,44,0.00,,,0.00,,2013-11-19 19:41:00,
2013-11-19 11:52:00,59.0,37.0,29.96,NE,38,2.0,4.0,43,0.00,,,0.00,,2013-11-19 19:52:00,
2013-11-19 12:21:00,60.0,37.0,29.95,ESE,119,3.0,5.0,43,0.00,,,0.00,,2013-11-19 20:21:00,
2013-11-19 12:52:00,61.0,38.0,29.93,NE,37,0.0,3.0,42,0.00,,,0.00,,2013-11-19 20:52:00,
2013-11-19 13:21:00,61.0,37.0,29.93,ESE,103,0.0,4.0,41,0.00,,,0.00,,2013-11-19 21:21:00,
2013-11-19 13:43:00,62.0,38.0,29.92,East,96,1.0,3.0,41,0.00,,,0.00,,2013-11-19 21:43:00,
2013-11-19 13:54:00,62.0,37.0,29.92,SE,129,0.0,4.0,39,0.00,,,0.00,,2013-11-19 21:54:00,
2013-11-19 14:12:00,64.0,39.0,29.91,NE,43,3.0,5.0,39,0.00,,,0.00,,2013-11-19 22:12:00,
2013-11-19 14:22:00,64.0,38.0,29.92,ENE,62,3.0,6.0,38,0.00,,,0.00,,2013-11-19 22:22:00,
2013-11-19 14:42:00,64.0,38.0,29.91,ENE,59,2.0,6.0,38,0.00,,,0.00,,2013-11-19 22:42:00,
2013-11-19 14:53:00,65.0,38.0,29.91,NE,37,3.0,6.0,37,0.00,,,0.00,,2013-11-19 22:53:00,
2013-11-19 15:21:00,64.0,37.0,29.90,ENE,60,3.0,7.0,37,0.00,,,0.00,,2013-11-19 23:21:00,
2013-11-19 15:42:00,64.0,38.0,29.90,NE,37,2.0,6.0,38,0.00,,,0.00,,2013-11-19 23:42:00,
2013-11-19 15:52:00,63.0,37.0,29.90,NNE,33,4.0,7.0,38,0.00,,,0.00,,2013-11-19 23:52:00,
2013-11-19 16:21:00,62.0,37.0,29.91,NE,42,2.0,5.0,39,0.00,,,0.00,,2013-11-20 00:21:00,
2013-11-19 16:52:00,60.0,36.0,29.91,ENE,57,0.0,2.0,41,0.00,,,0.00,,2013-11-20 00:52:00,
2013-11-19 17:21:00,57.0,35.0,29.91,ESE,107,0.0,0.0,44,0.00,,,0.00,,2013-11-20 01:21:00,
2013-11-19 17:42:00,56.0,36.0,29.91,ESE,107,0.0,0.0,46,0.00,,,0.00,,2013-11-20 01:42:00,
2013-11-19 17:52:00,55.0,35.0,29.91,ESE,107,0.0,0.0,47,0.00,,,0.00,,2013-11-20 01:52:00,
2013-11-19 18:21:00,55.0,35.0,29.91,ESE,119,0.0,0.0,47,0.00,,,0.00,,2013-11-20 02:21:00,
2013-11-19 18:42:00,55.0,35.0,29.91,ESE,119,0.0,0.0,47,0.00,,,0.00,,2013-11-20 02:42:00,
2013-11-19 18:52:00,55.0,35.0,29.91,South,173,3.0,3.0,47,0.00,,,0.00,,2013-11-20 02:52:00,
2013-11-19 19:21:00,53.0,34.0,29.91,West,260,2.0,5.0,49,0.00,,,0.00,,2013-11-20 03:21:00,
2013-11-19 19:43:00,53.0,34.0,29.92,WSW,243,3.0,5.0,49,0.00,,,0.00,,2013-11-20 03:43:00,
2013-11-19 19:54:00,55.0,36.0,29.91,WSW,243,0.0,3.0,48,0.00,,,0.00,,2013-11-20 03:54:00,
2013-11-19 20:13:00,54.0,35.0,29.91,WSW,242,0.0,3.0,49,0.00,,,0.00,,2013-11-20 04:13:00,
2013-11-19 20:23:00,53.0,35.0,29.91,WSW,243,1.0,2.0,51,0.00,,,0.00,,2013-11-20 04:23:00,
2013-11-19 20:43:00,53.0,35.0,29.92,WSW,243,3.0,4.0,50,0.00,,,0.00,,2013-11-20 04:43:00,
2013-11-19 20:52:00,53.0,35.0,29.92,WSW,243,0.0,3.0,51,0.00,,,0.00,,2013-11-20 04:52:00,
2013-11-19 21:12:00,53.0,35.0,29.92,WSW,242,0.0,0.0,51,0.00,,,0.00,,2013-11-20 05:12:00,
2013-11-19 21:22:00,53.0,35.0,29.92,WSW,243,0.0,0.0,51,0.00,,,0.00,,2013-11-20 05:22:00,
2013-11-19 21:42:00,54.0,36.0,29.93,WSW,243,1.0,3.0,50,0.00,,,0.00,,2013-11-20 05:42:00,
2013-11-19 21:52:00,53.0,35.0,29.92,WSW,243,0.0,3.0,51,0.00,,,0.00,,2013-11-20 05:52:00,
2013-11-19 22:21:00,53.0,35.0,29.91,SSW,202,2.0,3.0,51,0.00,,,0.00,,2013-11-20 06:21:00,
2013-11-19 22:42:00,51.0,34.0,29.91,SSW,202,0.0,0.0,53,0.00,,,0.00,,2013-11-20 06:42:00,
2013-11-19 22:52:00,52.0,35.0,29.91,West,271,0.0,2.0,53,0.00,,,0.00,,2013-11-20 06:52:00,
2013-11-19 23:21:00,53.0,35.0,29.90,SE,143,4.0,7.0,51,0.00,,,0.00,,2013-11-20 07:21:00,
2013-11-19 23:42:00,54.0,36.0,29.90,SE,143,0.0,4.0,51,0.00,,,0.00,,2013-11-20 07:42:00,
2013-11-19 23:52:00,53.0,35.0,29.90,SSE,165,0.0,0.0,51,0.00,,,0.00,,2013-11-20 07:52:00,